createdAt,value
2023-02-11T00:11:28.301Z,101964.61
2023-02-11T00:41:31.690Z,101945.42
2023-02-11T01:11:34.935Z,101833.84
2023-02-11T01:41:38.179Z,101814.87
2023-02-11T02:11:41.477Z,101858.27
2023-02-11T02:41:44.349Z,101779.23
2023-02-11T03:11:48.118Z,101741.02
2023-02-11T03:41:51.029Z,101702.58
2023-02-11T04:11:54.981Z,101634.90
2023-02-11T04:41:57.753Z,101598.00
2023-02-11T05:12:01.201Z,101579.14
2023-02-11T05:42:04.022Z,101574.08
2023-02-11T06:12:07.749Z,101533.03
2023-02-11T06:42:10.606Z,101524.80
2023-02-11T07:12:14.202Z,101517.47
2023-02-11T07:42:17.708Z,101488.81
2023-02-11T08:12:20.881Z,101493.52
2023-02-11T08:42:24.290Z,101498.17
2023-02-11T09:12:27.242Z,101487.35
2023-02-11T09:42:30.658Z,101483.52
2023-02-11T10:12:33.873Z,101480.88
2023-02-11T10:42:36.908Z,101409.55
2023-02-11T11:12:42.099Z,101368.18
2023-02-11T11:42:45.605Z,101334.55
2023-02-11T12:12:49.790Z,101372.75
2023-02-11T12:42:53.891Z,101378.72
2023-02-11T13:12:57.484Z,101382.09
2023-02-11T13:43:00.814Z,101388.23
2023-02-11T14:13:04.220Z,101397.83
2023-02-11T14:43:07.449Z,101422.16
2023-02-11T15:13:10.866Z,101479.37
2023-02-11T15:43:14.577Z,101479.52
2023-02-11T16:13:18.338Z,101536.70
2023-02-11T16:43:22.260Z,101581.73
2023-02-11T17:13:25.484Z,101650.98
2023-02-11T17:43:28.314Z,101677.78
2023-02-11T18:13:32.139Z,101722.72
2023-02-11T18:43:36.010Z,101750.50
2023-02-11T19:13:39.713Z,101789.50
2023-02-11T19:43:43.204Z,101837.02
2023-02-11T20:13:46.640Z,101854.27
2023-02-11T20:43:50.251Z,101913.39
2023-02-11T21:13:53.977Z,101981.90
2023-02-11T21:43:58.572Z,102016.50
2023-02-11T22:14:03.084Z,102034.17
2023-02-11T22:44:07.172Z,102071.88
2023-02-11T23:14:10.107Z,102138.45
2023-02-11T23:44:13.564Z,102175.06
